createdAt,value
2023-05-21T00:02:59.522Z,76.41
2023-05-21T00:08:02.825Z,77.14
2023-05-21T00:13:05.931Z,76.18
2023-05-21T00:18:08.999Z,75.96
2023-05-21T00:23:12.156Z,78.10
2023-05-21T00:28:15.157Z,78.30
2023-05-21T00:33:18.504Z,78.07
2023-05-21T00:38:22.414Z,78.41
2023-05-21T00:43:26.832Z,78.32
2023-05-21T00:48:29.837Z,78.07
2023-05-21T00:53:35.191Z,82.03
2023-05-21T00:58:39.769Z,82.19
2023-05-21T01:03:43.108Z,80.09
2023-05-21T01:08:46.888Z,81.19
2023-05-21T01:13:51.071Z,81.06
2023-05-21T01:18:54.258Z,82.31
2023-05-21T01:23:57.338Z,82.36
2023-05-21T01:29:00.344Z,83.57
2023-05-21T01:34:09.672Z,84.97
2023-05-21T01:39:16.916Z,82.63
2023-05-21T01:44:21.087Z,80.45
2023-05-21T01:49:24.690Z,79.65
2023-05-21T01:54:27.674Z,80.28
2023-05-21T01:59:30.931Z,80.81
2023-05-21T02:04:34.095Z,81.20
2023-05-21T02:09:37.100Z,82.19
2023-05-21T02:14:40.130Z,81.81
2023-05-21T02:19:45.059Z,80.37
2023-05-21T02:24:48.063Z,80.75
2023-05-21T02:29:51.177Z,81.75
2023-05-21T02:34:54.183Z,81.73
2023-05-21T02:39:57.191Z,82.02
2023-05-21T02:45:00.630Z,82.87
2023-05-21T02:50:05.971Z,82.52
2023-05-21T02:55:09.928Z,82.89
2023-05-21T03:00:13.922Z,84.40
2023-05-21T03:05:16.930Z,84.03
2023-05-21T03:10:19.932Z,83.17
2023-05-21T03:15:24.425Z,81.43
2023-05-21T03:20:28.510Z,77.64
2023-05-21T03:25:31.659Z,74.83
2023-05-21T03:30:34.729Z,71.10
2023-05-21T03:35:38.029Z,68.05
2023-05-21T03:40:41.198Z,61.91
2023-05-21T03:45:44.582Z,56.85
2023-05-21T03:50:48.085Z,54.38
2023-05-21T03:55:55.408Z,54.52
2023-05-21T04:00:58.813Z,51.46
2023-05-21T04:06:03.516Z,48.95
2023-05-21T04:11:06.673Z,45.81
2023-05-21T04:16:09.797Z,42.08
2023-05-21T04:21:13.349Z,37.35
2023-05-21T04:26:16.501Z,35.06
2023-05-21T04:31:19.584Z,35.44
2023-05-21T04:36:22.633Z,35.99
2023-05-21T04:41:25.728Z,33.33
2023-05-21T04:46:28.754Z,30.02
2023-05-21T04:51:32.157Z,32.11
2023-05-21T04:56:35.269Z,28.56
2023-05-21T05:01:38.815Z,28.24
2023-05-21T05:06:41.816Z,29.56
2023-05-21T05:11:44.920Z,29.65
2023-05-21T05:16:50.662Z,28.89
2023-05-21T05:21:54.171Z,29.56
2023-05-21T05:26:57.191Z,29.94
2023-05-21T05:32:00.196Z,30.07
2023-05-21T05:37:04.538Z,28.27
2023-05-21T05:42:07.547Z,27.82
2023-05-21T05:47:11.169Z,29.31
2023-05-21T05:52:14.577Z,28.62
2023-05-21T05:57:17.622Z,27.51
2023-05-21T06:02:20.982Z,28.31
2023-05-21T06:07:24.312Z,28.60
2023-05-21T06:12:27.330Z,28.54
2023-05-21T06:17:30.470Z,27.03
2023-05-21T06:22:34.257Z,27.12
2023-05-21T06:27:38.154Z,27.07
2023-05-21T06:32:41.382Z,26.19
2023-05-21T06:37:44.710Z,26.63
2023-05-21T06:42:47.750Z,25.95
2023-05-21T06:47:50.893Z,26.58
2023-05-21T06:52:54.037Z,26.69
2023-05-21T06:57:58.047Z,25.00
2023-05-21T07:03:01.174Z,25.06
2023-05-21T07:08:04.391Z,24.10
2023-05-21T07:13:07.413Z,24.04
2023-05-21T07:18:10.516Z,24.04
2023-05-21T07:23:13.524Z,23.38
2023-05-21T07:28:16.626Z,22.86
2023-05-21T07:33:20.895Z,23.96
2023-05-21T07:38:23.964Z,22.50
2023-05-21T07:43:26.972Z,22.76
2023-05-21T07:48:30.078Z,23.64
2023-05-21T07:53:33.547Z,22.79
2023-05-21T07:58:36.704Z,21.80
2023-05-21T08:03:39.847Z,22.38
2023-05-21T08:08:43.028Z,22.21
2023-05-21T08:13:46.033Z,21.44
2023-05-21T08:18:49.619Z,20.94
2023-05-21T08:23:53.380Z,21.02
2023-05-21T08:28:56.797Z,20.47
2023-05-21T08:33:59.800Z,20.07
2023-05-21T08:39:02.804Z,20.15
2023-05-21T08:44:12.265Z,21.46
2023-05-21T08:49:18.868Z,21.22
2023-05-21T08:54:22.906Z,22.58
2023-05-21T08:59:26.830Z,24.33
2023-05-21T09:04:31.421Z,25.73
2023-05-21T09:09:42.308Z,26.70
2023-05-21T09:14:47.610Z,26.25
2023-05-21T09:20:15.142Z,26.92
2023-05-21T09:25:28.475Z,27.65
2023-05-21T09:30:33.996Z,27.37
2023-05-21T09:35:45.595Z,27.67
2023-05-21T09:40:48.512Z,27.22
2023-05-21T09:45:53.301Z,28.39
2023-05-21T09:51:08.453Z,27.99
2023-05-21T09:56:11.779Z,28.42
2023-05-21T10:01:14.891Z,27.63
2023-05-21T10:06:19.416Z,28.46
2023-05-21T10:11:26.728Z,27.90
2023-05-21T10:16:33.184Z,27.54
2023-05-21T10:21:37.200Z,27.41
2023-05-21T10:26:41.529Z,26.88
2023-05-21T10:31:49.949Z,26.69
2023-05-21T10:36:55.816Z,25.54
2023-05-21T10:42:26.247Z,26.08
2023-05-21T10:47:50.614Z,25.84
2023-05-21T10:53:20.287Z,26.40
2023-05-21T10:58:48.791Z,25.75
2023-05-21T11:03:52.072Z,25.99
2023-05-21T11:08:55.840Z,26.70
2023-05-21T11:13:59.039Z,26.20
2023-05-21T11:19:03.058Z,26.45
2023-05-21T11:24:08.511Z,27.64
2023-05-21T11:29:12.092Z,27.21
2023-05-21T11:34:28.983Z,27.04
2023-05-21T11:39:40.350Z,26.66
2023-05-21T11:44:45.265Z,26.99
2023-05-21T11:49:49.559Z,27.00
2023-05-21T11:54:58.332Z,26.91
2023-05-21T12:00:04.797Z,26.15
2023-05-21T12:05:10.208Z,25.92
2023-05-21T12:10:13.533Z,26.26
2023-05-21T12:15:18.052Z,25.39
2023-05-21T12:20:21.445Z,25.39
2023-05-21T12:25:24.752Z,25.10
2023-05-21T12:30:28.882Z,24.86
2023-05-21T12:35:32.611Z,24.72
2023-05-21T12:40:38.308Z,24.93
2023-05-21T12:45:43.757Z,26.25
2023-05-21T12:50:47.164Z,25.67
2023-05-21T12:55:50.781Z,24.98
2023-05-21T13:00:56.650Z,24.51
2023-05-21T13:06:00.285Z,24.94
2023-05-21T13:11:04.525Z,25.17
2023-05-21T13:16:08.234Z,25.07
2023-05-21T13:21:11.285Z,24.73
2023-05-21T13:26:14.452Z,24.79
2023-05-21T13:31:17.770Z,25.76
2023-05-21T13:36:20.878Z,26.05
2023-05-21T13:41:23.988Z,25.88
2023-05-21T13:46:27.353Z,25.53
2023-05-21T13:51:38.567Z,26.18
2023-05-21T13:56:42.471Z,26.27
2023-05-21T14:01:45.856Z,25.95
2023-05-21T14:06:48.949Z,25.23
2023-05-21T14:11:52.013Z,25.57
2023-05-21T14:16:55.213Z,25.87
2023-05-21T14:22:00.141Z,25.96
2023-05-21T14:27:03.677Z,25.69
2023-05-21T14:32:07.878Z,25.45
2023-05-21T14:37:10.981Z,25.83
2023-05-21T14:42:14.399Z,25.65
2023-05-21T14:47:17.403Z,24.96
2023-05-21T14:52:20.621Z,24.72
2023-05-21T14:57:23.623Z,25.12
2023-05-21T15:02:26.977Z,24.99
2023-05-21T15:07:30.249Z,24.60
2023-05-21T15:12:33.248Z,25.12
2023-05-21T15:17:36.500Z,25.08
2023-05-21T15:22:39.889Z,24.65
2023-05-21T15:27:42.770Z,25.35
2023-05-21T15:32:45.891Z,25.33
2023-05-21T15:37:49.001Z,25.35
2023-05-21T15:42:52.013Z,24.79
2023-05-21T15:47:55.051Z,24.90
2023-05-21T15:52:58.231Z,24.36
2023-05-21T15:58:04.039Z,24.61
2023-05-21T16:03:07.274Z,24.28
2023-05-21T16:08:12.363Z,24.48
2023-05-21T16:13:15.478Z,24.16
2023-05-21T16:18:18.586Z,25.17
2023-05-21T16:23:21.592Z,25.96
2023-05-21T16:28:27.280Z,25.51
2023-05-21T16:33:30.881Z,25.18
2023-05-21T16:38:33.996Z,25.32
2023-05-21T16:43:37.529Z,25.84
2023-05-21T16:48:42.162Z,26.50
2023-05-21T16:53:45.369Z,27.05
2023-05-21T16:58:48.475Z,27.86
2023-05-21T17:03:51.845Z,28.61
2023-05-21T17:08:55.015Z,28.89
2023-05-21T17:13:58.631Z,29.65
2023-05-21T17:19:01.661Z,30.42
2023-05-21T17:24:05.241Z,30.95
2023-05-21T17:29:08.260Z,31.55
2023-05-21T17:34:12.203Z,31.99
2023-05-21T17:39:15.131Z,32.55
2023-05-21T17:44:19.220Z,32.86
2023-05-21T17:49:22.674Z,33.22
2023-05-21T17:54:26.155Z,33.51
2023-05-21T17:59:29.268Z,33.92
2023-05-21T18:04:32.288Z,34.05
2023-05-21T18:09:35.479Z,34.36
2023-05-21T18:14:38.587Z,34.61
2023-05-21T18:19:41.601Z,34.91
2023-05-21T18:24:44.704Z,35.58
2023-05-21T18:29:49.212Z,35.85
2023-05-21T18:34:52.597Z,36.33
2023-05-21T18:39:55.664Z,36.64
2023-05-21T18:45:05.639Z,37.35
2023-05-21T18:50:11.284Z,37.83
2023-05-21T18:55:14.974Z,37.88
2023-05-21T19:00:18.833Z,38.23
2023-05-21T19:05:22.358Z,38.64
2023-05-21T19:10:25.593Z,39.23
2023-05-21T19:15:28.600Z,39.88
2023-05-21T19:20:31.914Z,41.20
2023-05-21T19:25:35.002Z,42.22
2023-05-21T19:30:38.474Z,41.61
2023-05-21T19:35:43.384Z,43.25
2023-05-21T19:40:46.722Z,42.05
2023-05-21T19:45:49.961Z,42.41
2023-05-21T19:50:53.129Z,44.16
2023-05-21T19:55:56.851Z,43.64
2023-05-21T20:01:00.380Z,45.20
2023-05-21T20:06:04.000Z,45.34
2023-05-21T20:11:07.052Z,44.00
2023-05-21T20:16:10.738Z,44.47
2023-05-21T20:21:17.963Z,44.87
2023-05-21T20:26:22.053Z,46.25
2023-05-21T20:31:25.714Z,46.57
2023-05-21T20:36:30.748Z,46.10
2023-05-21T20:41:38.054Z,45.60
2023-05-21T20:46:41.159Z,46.54
2023-05-21T20:51:44.668Z,46.77
2023-05-21T20:56:50.956Z,46.98
2023-05-21T21:01:54.204Z,48.11
2023-05-21T21:06:57.367Z,48.13
2023-05-21T21:12:06.107Z,48.42
2023-05-21T21:17:14.902Z,49.62
2023-05-21T21:22:18.623Z,50.50
2023-05-21T21:27:21.683Z,52.10
2023-05-21T21:32:25.932Z,51.85
2023-05-21T21:37:29.760Z,51.93
2023-05-21T21:42:32.962Z,52.34
2023-05-21T21:47:36.005Z,54.84
2023-05-21T21:52:40.324Z,56.09
2023-05-21T21:57:43.413Z,54.95
2023-05-21T22:02:46.849Z,54.83
2023-05-21T22:07:51.654Z,55.51
2023-05-21T22:12:54.821Z,56.06
2023-05-21T22:17:58.916Z,55.73
2023-05-21T22:23:01.931Z,55.50
2023-05-21T22:28:05.550Z,55.87
2023-05-21T22:33:08.611Z,55.51
2023-05-21T22:38:11.604Z,55.79
2023-05-21T22:43:14.680Z,56.83
2023-05-21T22:48:18.502Z,56.64
2023-05-21T22:53:21.448Z,55.92
2023-05-21T22:58:24.618Z,56.34
2023-05-21T23:09:25.839Z,58.46
2023-05-21T23:14:28.930Z,57.60
2023-05-21T23:19:33.067Z,58.42
2023-05-21T23:24:36.583Z,58.86
2023-05-21T23:29:39.734Z,59.38
2023-05-21T23:34:43.105Z,60.86
2023-05-21T23:39:49.853Z,62.48
2023-05-21T23:44:53.110Z,63.38
2023-05-21T23:49:56.224Z,64.31
2023-05-21T23:54:59.360Z,64.07
